sensor_id;sensor_type;location;lat;lon;timestamp;pressure;altitude;pressure_sealevel;temperature;humidity
73671;BME280;61968;48.178;11.566;2023-12-29T00:02:12;95927.22;;;8.47;38.54
73671;BME280;61968;48.178;11.566;2023-12-29T00:04:40;95932.09;;;8.44;38.61
73671;BME280;61968;48.178;11.566;2023-12-29T00:07:07;95931.41;;;8.23;38.72
73671;BME280;61968;48.178;11.566;2023-12-29T00:09:34;95920.84;;;8.23;38.80
73671;BME280;61968;48.178;11.566;2023-12-29T00:12:06;95919.44;;;8.21;39.13
73671;BME280;61968;48.178;11.566;2023-12-29T00:14:33;95915.97;;;8.27;38.65
73671;BME280;61968;48.178;11.566;2023-12-29T00:16:59;95912.50;;;8.33;38.82
73671;BME280;61968;48.178;11.566;2023-12-29T00:19:26;95905.00;;;8.30;39.11
73671;BME280;61968;48.178;11.566;2023-12-29T00:21:54;95900.59;;;8.24;39.38
73671;BME280;61968;48.178;11.566;2023-12-29T00:24:20;95905.47;;;8.20;39.19
73671;BME280;61968;48.178;11.566;2023-12-29T00:26:46;95893.22;;;7.94;39.94
73671;BME280;61968;48.178;11.566;2023-12-29T00:29:13;95893.22;;;7.94;40.36
73671;BME280;61968;48.178;11.566;2023-12-29T00:31:40;95893.38;;;8.06;39.83
73671;BME280;61968;48.178;11.566;2023-12-29T00:34:06;95884.44;;;8.14;39.67
73671;BME280;61968;48.178;11.566;2023-12-29T00:36:33;95887.31;;;8.05;39.88
73671;BME280;61968;48.178;11.566;2023-12-29T00:39:01;95887.97;;;8.01;40.04
73671;BME280;61968;48.178;11.566;2023-12-29T00:41:27;95882.03;;;8.05;39.66
73671;BME280;61968;48.178;11.566;2023-12-29T00:43:54;95880.59;;;8.09;39.63
73671;BME280;61968;48.178;11.566;2023-12-29T00:46:20;95868.59;;;8.20;39.66
73671;BME280;61968;48.178;11.566;2023-12-29T00:48:46;95880.19;;;8.12;39.52
73671;BME280;61968;48.178;11.566;2023-12-29T00:51:13;95872.03;;;8.21;39.14
73671;BME280;61968;48.178;11.566;2023-12-29T00:53:39;95866.59;;;8.16;39.29
73671;BME280;61968;48.178;11.566;2023-12-29T00:56:10;95871.09;;;8.08;39.35
73671;BME280;61968;48.178;11.566;2023-12-29T00:58:37;95876.16;;;8.10;39.44
73671;BME280;61968;48.178;11.566;2023-12-29T01:01:06;95868.69;;;8.00;39.53
73671;BME280;61968;48.178;11.566;2023-12-29T01:03:33;95870.47;;;8.06;39.28
73671;BME280;61968;48.178;11.566;2023-12-29T01:06:00;95869.81;;;8.18;39.01
73671;BME280;61968;48.178;11.566;2023-12-29T01:08:26;95876.16;;;8.03;38.88
73671;BME280;61968;48.178;11.566;2023-12-29T01:10:53;95873.94;;;8.07;39.11
73671;BME280;61968;48.178;11.566;2023-12-29T01:13:21;95875.16;;;8.04;39.06
73671;BME280;61968;48.178;11.566;2023-12-29T01:15:47;95877.63;;;7.99;38.82
73671;BME280;61968;48.178;11.566;2023-12-29T01:18:14;95877.28;;;7.89;39.26
73671;BME280;61968;48.178;11.566;2023-12-29T01:20:40;95884.09;;;7.97;39.17
73671;BME280;61968;48.178;11.566;2023-12-29T01:23:06;95888.59;;;7.89;39.10
73671;BME280;61968;48.178;11.566;2023-12-29T01:25:33;95884.09;;;7.97;39.14
73671;BME280;61968;48.178;11.566;2023-12-29T01:27:59;95885.78;;;7.84;39.35
73671;BME280;61968;48.178;11.566;2023-12-29T01:30:27;95893.50;;;7.79;39.04
73671;BME280;61968;48.178;11.566;2023-12-29T01:32:54;95891.44;;;7.88;38.85
73671;BME280;61968;48.178;11.566;2023-12-29T01:35:19;95894.25;;;7.93;38.91
73671;BME280;61968;48.178;11.566;2023-12-29T01:37:45;95891.66;;;7.86;38.95
73671;BME280;61968;48.178;11.566;2023-12-29T01:40:12;95884.56;;;7.87;38.51
73671;BME280;61968;48.178;11.566;2023-12-29T01:42:39;95880.28;;;7.93;38.60
73671;BME280;61968;48.178;11.566;2023-12-29T01:45:06;95884.78;;;7.79;38.95
73671;BME280;61968;48.178;11.566;2023-12-29T01:47:43;95882.56;;;7.76;38.99
73671;BME280;61968;48.178;11.566;2023-12-29T01:50:10;95872.47;;;7.73;39.09
73671;BME280;61968;48.178;11.566;2023-12-29T01:52:36;95878.53;;;7.73;38.59
73671;BME280;61968;48.178;11.566;2023-12-29T01:55:03;95874.47;;;7.77;38.79
73671;BME280;61968;48.178;11.566;2023-12-29T01:57:30;95867.44;;;7.58;38.71
73671;BME280;61968;48.178;11.566;2023-12-29T02:00:00;95862.34;;;7.70;38.71
73671;BME280;61968;48.178;11.566;2023-12-29T02:02:27;95862.53;;;7.75;38.68
73671;BME280;61968;48.178;11.566;2023-12-29T02:04:55;95869.00;;;7.79;38.69
73671;BME280;61968;48.178;11.566;2023-12-29T02:07:22;95874.25;;;7.79;38.23
73671;BME280;61968;48.178;11.566;2023-12-29T02:09:48;95860.09;;;7.73;38.36
73671;BME280;61968;48.178;11.566;2023-12-29T02:12:17;95857.47;;;7.80;38.03
73671;BME280;61968;48.178;11.566;2023-12-29T02:14:43;95857.69;;;7.72;38.54
73671;BME280;61968;48.178;11.566;2023-12-29T02:17:15;95853.00;;;7.80;38.03
73671;BME280;61968;48.178;11.566;2023-12-29T02:19:45;95850.00;;;7.77;38.20
73671;BME280;61968;48.178;11.566;2023-12-29T02:22:15;95853.84;;;7.74;37.96
73671;BME280;61968;48.178;11.566;2023-12-29T02:24:46;95857.91;;;7.70;38.27
73671;BME280;61968;48.178;11.566;2023-12-29T02:27:21;95857.09;;;7.70;38.04
73671;BME280;61968;48.178;11.566;2023-12-29T02:29:57;95856.28;;;7.69;37.79
73671;BME280;61968;48.178;11.566;2023-12-29T02:32:29;95859.38;;;7.59;37.49
73671;BME280;61968;48.178;11.566;2023-12-29T02:34:57;95850.66;;;7.59;37.66
73671;BME280;61968;48.178;11.566;2023-12-29T02:37:26;95850.66;;;7.52;37.31
73671;BME280;61968;48.178;11.566;2023-12-29T02:39:56;95845.81;;;7.56;37.51
73671;BME280;61968;48.178;11.566;2023-12-29T02:42:23;95839.91;;;7.60;37.27
73671;BME280;61968;48.178;11.566;2023-12-29T02:44:50;95840.53;;;7.62;36.96
73671;BME280;61968;48.178;11.566;2023-12-29T02:47:16;95829.56;;;7.72;36.67
73671;BME280;61968;48.178;11.566;2023-12-29T02:49:44;95824.25;;;7.79;36.53
73671;BME280;61968;48.178;11.566;2023-12-29T02:52:10;95829.47;;;7.85;36.29
73671;BME280;61968;48.178;11.566;2023-12-29T02:54:37;95826.91;;;7.72;36.45
73671;BME280;61968;48.178;11.566;2023-12-29T02:57:04;95814.00;;;7.64;36.21
73671;BME280;61968;48.178;11.566;2023-12-29T02:59:31;95816.47;;;7.59;36.60
73671;BME280;61968;48.178;11.566;2023-12-29T03:01:57;95821.50;;;7.60;36.07
73671;BME280;61968;48.178;11.566;2023-12-29T03:04:24;95815.25;;;7.61;35.98
73671;BME280;61968;48.178;11.566;2023-12-29T03:06:50;95809.97;;;7.61;36.11
73671;BME280;61968;48.178;11.566;2023-12-29T03:09:16;95800.25;;;7.55;35.88
73671;BME280;61968;48.178;11.566;2023-12-29T03:11:43;95802.88;;;7.55;35.83
73671;BME280;61968;48.178;11.566;2023-12-29T03:14:10;95804.13;;;7.46;36.02
73671;BME280;61968;48.178;11.566;2023-12-29T03:16:37;95800.06;;;7.50;35.64
73671;BME280;61968;48.178;11.566;2023-12-29T03:19:03;95807.56;;;7.53;35.43
73671;BME280;61968;48.178;11.566;2023-12-29T03:21:30;95804.72;;;7.55;35.52
73671;BME280;61968;48.178;11.566;2023-12-29T03:23:56;95806.56;;;7.54;35.24
73671;BME280;61968;48.178;11.566;2023-12-29T03:26:22;95804.91;;;7.60;35.69
73671;BME280;61968;48.178;11.566;2023-12-29T03:28:49;95811.34;;;7.64;34.62
73671;BME280;61968;48.178;11.566;2023-12-29T03:31:17;95805.13;;;7.58;35.15
73671;BME280;61968;48.178;11.566;2023-12-29T03:33:44;95802.09;;;7.61;34.46
73671;BME280;61968;48.178;11.566;2023-12-29T03:36:10;95808.72;;;7.64;34.72
73671;BME280;61968;48.178;11.566;2023-12-29T03:38:36;95798.38;;;7.69;34.57
73671;BME280;61968;48.178;11.566;2023-12-29T03:41:03;95804.44;;;7.70;34.41
73671;BME280;61968;48.178;11.566;2023-12-29T03:43:30;95802.03;;;7.68;34.64
73671;BME280;61968;48.178;11.566;2023-12-29T03:45:56;95801.66;;;7.64;34.30
73671;BME280;61968;48.178;11.566;2023-12-29T03:48:25;95797.63;;;7.62;34.29
73671;BME280;61968;48.178;11.566;2023-12-29T03:50:51;95805.13;;;7.58;34.41
73671;BME280;61968;48.178;11.566;2023-12-29T03:53:18;95801.28;;;7.54;33.68
73671;BME280;61968;48.178;11.566;2023-12-29T03:55:44;95807.16;;;7.56;33.86
73671;BME280;61968;48.178;11.566;2023-12-29T03:58:11;95798.84;;;7.59;33.79
73671;BME280;61968;48.178;11.566;2023-12-29T04:00:37;95793.16;;;7.62;33.78
73671;BME280;61968;48.178;11.566;2023-12-29T04:03:06;95794.97;;;7.69;33.81
73671;BME280;61968;48.178;11.566;2023-12-29T04:05:34;95788.25;;;7.73;33.97
73671;BME280;61968;48.178;11.566;2023-12-29T04:08:01;95787.84;;;7.69;33.39
73671;BME280;61968;48.178;11.566;2023-12-29T04:10:27;95789.50;;;7.63;33.51
73671;BME280;61968;48.178;11.566;2023-12-29T04:12:54;95783.25;;;7.64;33.50
73671;BME280;61968;48.178;11.566;2023-12-29T04:15:20;95782.25;;;7.52;33.64
73671;BME280;61968;48.178;11.566;2023-12-29T04:17:47;95781.06;;;7.41;33.69
73671;BME280;61968;48.178;11.566;2023-12-29T04:20:13;95781.47;;;7.52;33.50
73671;BME280;61968;48.178;11.566;2023-12-29T04:22:41;95775.94;;;7.66;33.47
73671;BME280;61968;48.178;11.566;2023-12-29T04:25:08;95785.88;;;7.64;33.69
73671;BME280;61968;48.178;11.566;2023-12-29T04:27:34;95778.56;;;7.66;33.46
73671;BME280;61968;48.178;11.566;2023-12-29T04:30:01;95773.25;;;7.73;33.52
73671;BME280;61968;48.178;11.566;2023-12-29T04:32:28;95775.34;;;7.64;33.46
73671;BME280;61968;48.178;11.566;2023-12-29T04:34:54;95778.41;;;7.61;33.81
73671;BME280;61968;48.178;11.566;2023-12-29T04:37:21;95774.66;;;7.76;33.85
73671;BME280;61968;48.178;11.566;2023-12-29T04:39:49;95772.50;;;7.66;33.55
73671;BME280;61968;48.178;11.566;2023-12-29T04:42:15;95772.44;;;7.73;33.63
73671;BME280;61968;48.178;11.566;2023-12-29T04:44:43;95771.69;;;7.65;33.73
73671;BME280;61968;48.178;11.566;2023-12-29T04:47:09;95772.72;;;7.58;33.85
73671;BME280;61968;48.178;11.566;2023-12-29T04:49:36;95766.00;;;7.69;33.83
73671;BME280;61968;48.178;11.566;2023-12-29T04:52:03;95765.75;;;7.77;33.71
73671;BME280;61968;48.178;11.566;2023-12-29T04:54:30;95778.41;;;7.93;33.53
73671;BME280;61968;48.178;11.566;2023-12-29T04:56:57;95772.72;;;7.96;33.35
73671;BME280;61968;48.178;11.566;2023-12-29T04:59:24;95771.53;;;7.92;33.50
73671;BME280;61968;48.178;11.566;2023-12-29T05:01:50;95764.28;;;7.87;33.54
73671;BME280;61968;48.178;11.566;2023-12-29T05:04:17;95779.31;;;7.80;33.85
73671;BME280;61968;48.178;11.566;2023-12-29T05:06:43;95777.28;;;7.76;33.76
73671;BME280;61968;48.178;11.566;2023-12-29T05:09:10;95781.50;;;7.38;35.01
73671;BME280;61968;48.178;11.566;2023-12-29T05:11:36;95766.31;;;7.40;34.90
73671;BME280;61968;48.178;11.566;2023-12-29T05:14:04;95767.47;;;7.58;35.08
73671;BME280;61968;48.178;11.566;2023-12-29T05:16:30;95765.81;;;7.63;34.69
73671;BME280;61968;48.178;11.566;2023-12-29T05:18:57;95764.41;;;7.61;34.67
73671;BME280;61968;48.178;11.566;2023-12-29T05:21:23;95766.34;;;7.79;34.74
73671;BME280;61968;48.178;11.566;2023-12-29T05:23:51;95764.09;;;7.82;34.66
73671;BME280;61968;48.178;11.566;2023-12-29T05:26:18;95770.75;;;7.85;34.97
73671;BME280;61968;48.178;11.566;2023-12-29T05:28:45;95765.28;;;7.86;34.89
73671;BME280;61968;48.178;11.566;2023-12-29T05:31:13;95765.53;;;7.78;35.25
73671;BME280;61968;48.178;11.566;2023-12-29T05:33:39;95774.31;;;7.65;35.45
73671;BME280;61968;48.178;11.566;2023-12-29T05:36:07;95781.97;;;7.74;35.30
73671;BME280;61968;48.178;11.566;2023-12-29T05:38:34;95778.94;;;7.70;35.49
73671;BME280;61968;48.178;11.566;2023-12-29T05:41:01;95780.81;;;8.01;40.92
73671;BME280;61968;48.178;11.566;2023-12-29T05:43:30;95779.66;;;8.47;36.04
73671;BME280;61968;48.178;11.566;2023-12-29T05:45:57;95781.06;;;8.18;35.22
73671;BME280;61968;48.178;11.566;2023-12-29T05:48:25;95779.53;;;8.10;34.82
73671;BME280;61968;48.178;11.566;2023-12-29T05:50:51;95781.97;;;8.05;35.09
73671;BME280;61968;48.178;11.566;2023-12-29T05:53:18;95782.56;;;7.76;35.62
73671;BME280;61968;48.178;11.566;2023-12-29T05:55:45;95782.41;;;7.71;35.75
73671;BME280;61968;48.178;11.566;2023-12-29T05:58:11;95776.63;;;7.87;35.40
73671;BME280;61968;48.178;11.566;2023-12-29T06:00:38;95775.19;;;7.91;35.47
73671;BME280;61968;48.178;11.566;2023-12-29T06:03:05;95779.59;;;7.97;34.96
73671;BME280;61968;48.178;11.566;2023-12-29T06:05:33;95787.28;;;7.99;34.96
73671;BME280;61968;48.178;11.566;2023-12-29T06:07:59;95782.41;;;8.02;35.19
73671;BME280;61968;48.178;11.566;2023-12-29T06:10:25;95788.44;;;8.09;34.89
73671;BME280;61968;48.178;11.566;2023-12-29T06:12:52;95790.53;;;7.94;35.09
73671;BME280;61968;48.178;11.566;2023-12-29T06:15:18;95790.47;;;8.07;35.36
73671;BME280;61968;48.178;11.566;2023-12-29T06:17:45;95786.88;;;8.27;41.13
73671;BME280;61968;48.178;11.566;2023-12-29T06:20:12;95782.22;;;8.79;37.58
73671;BME280;61968;48.178;11.566;2023-12-29T06:22:40;95779.53;;;8.61;34.15
73671;BME280;61968;48.178;11.566;2023-12-29T06:25:08;95790.00;;;8.42;34.41
73671;BME280;61968;48.178;11.566;2023-12-29T06:27:35;95800.66;;;7.97;35.41
73671;BME280;61968;48.178;11.566;2023-12-29T06:30:02;95799.28;;;7.88;35.24
73671;BME280;61968;48.178;11.566;2023-12-29T06:32:29;95808.47;;;7.79;35.61
73671;BME280;61968;48.178;11.566;2023-12-29T06:34:55;95799.84;;;7.97;35.25
73671;BME280;61968;48.178;11.566;2023-12-29T06:37:22;95798.28;;;7.89;34.97
73671;BME280;61968;48.178;11.566;2023-12-29T06:39:50;95797.09;;;7.85;35.55
73671;BME280;61968;48.178;11.566;2023-12-29T06:42:16;95811.84;;;7.93;35.17
73671;BME280;61968;48.178;11.566;2023-12-29T06:44:43;95805.06;;;7.72;35.67
73671;BME280;61968;48.178;11.566;2023-12-29T06:47:11;95797.09;;;7.85;35.37
73671;BME280;61968;48.178;11.566;2023-12-29T06:49:38;95800.94;;;7.89;35.30
73671;BME280;61968;48.178;11.566;2023-12-29T06:52:05;95797.50;;;7.82;35.16
73671;BME280;61968;48.178;11.566;2023-12-29T06:54:33;95794.44;;;7.85;35.04
73671;BME280;61968;48.178;11.566;2023-12-29T06:57:01;95795.44;;;7.91;34.92
73671;BME280;61968;48.178;11.566;2023-12-29T06:59:27;95800.81;;;7.71;35.34
73671;BME280;61968;48.178;11.566;2023-12-29T07:01:54;95803.06;;;7.60;35.68
73671;BME280;61968;48.178;11.566;2023-12-29T07:04:20;95807.13;;;7.63;35.96
73671;BME280;61968;48.178;11.566;2023-12-29T07:06:47;95791.47;;;7.75;35.62
73671;BME280;61968;48.178;11.566;2023-12-29T07:09:13;95802.91;;;7.49;36.69
73671;BME280;61968;48.178;11.566;2023-12-29T07:11:40;95811.34;;;7.64;36.62
73671;BME280;61968;48.178;11.566;2023-12-29T07:14:08;95807.56;;;7.53;36.93
73671;BME280;61968;48.178;11.566;2023-12-29T07:16:34;95802.44;;;7.72;36.60
73671;BME280;61968;48.178;11.566;2023-12-29T07:19:01;95795.28;;;7.79;36.37
73671;BME280;61968;48.178;11.566;2023-12-29T07:21:28;95799.84;;;7.97;36.29
73671;BME280;61968;48.178;11.566;2023-12-29T07:23:54;95799.28;;;7.88;37.00
73671;BME280;61968;48.178;11.566;2023-12-29T07:26:21;95809.78;;;7.56;37.45
73671;BME280;61968;48.178;11.566;2023-12-29T07:28:47;95799.75;;;7.78;37.47
73671;BME280;61968;48.178;11.566;2023-12-29T07:31:20;95812.03;;;7.53;38.25
73671;BME280;61968;48.178;11.566;2023-12-29T07:33:47;95805.38;;;7.37;39.17
73671;BME280;61968;48.178;11.566;2023-12-29T07:36:13;95815.53;;;7.27;39.66
73671;BME280;61968;48.178;11.566;2023-12-29T07:38:40;95815.84;;;7.57;39.18
73671;BME280;61968;48.178;11.566;2023-12-29T07:41:07;95815.59;;;7.72;39.67
73671;BME280;61968;48.178;11.566;2023-12-29T07:43:34;95816.78;;;7.76;39.59
73671;BME280;61968;48.178;11.566;2023-12-29T07:46:01;95815.94;;;7.24;40.92
73671;BME280;61968;48.178;11.566;2023-12-29T07:48:29;95815.94;;;7.24;41.12
73671;BME280;61968;48.178;11.566;2023-12-29T07:50:58;95817.88;;;7.48;40.82
73671;BME280;61968;48.178;11.566;2023-12-29T07:53:29;95815.28;;;7.41;41.39
73671;BME280;61968;48.178;11.566;2023-12-29T07:55:55;95815.66;;;7.58;40.73
73671;BME280;61968;48.178;11.566;2023-12-29T07:58:24;95818.97;;;7.79;40.75
73671;BME280;61968;48.178;11.566;2023-12-29T08:00:51;95818.97;;;7.79;40.70
73671;BME280;61968;48.178;11.566;2023-12-29T08:03:17;95830.00;;;7.62;41.23
73671;BME280;61968;48.178;11.566;2023-12-29T08:05:45;95831.84;;;7.62;40.82
73671;BME280;61968;48.178;11.566;2023-12-29T08:08:12;95845.38;;;7.65;41.13
73671;BME280;61968;48.178;11.566;2023-12-29T08:10:39;95840.38;;;7.44;41.68
73671;BME280;61968;48.178;11.566;2023-12-29T08:13:05;95839.00;;;7.15;42.55
73671;BME280;61968;48.178;11.566;2023-12-29T08:15:34;95844.63;;;7.38;42.04
73671;BME280;61968;48.178;11.566;2023-12-29T08:18:00;95837.94;;;7.56;42.05
73671;BME280;61968;48.178;11.566;2023-12-29T08:20:27;95841.50;;;7.75;41.56
73671;BME280;61968;48.178;11.566;2023-12-29T08:22:55;95846.94;;;7.73;41.44
73671;BME280;61968;48.178;11.566;2023-12-29T08:25:22;95835.28;;;7.62;41.56
73671;BME280;61968;48.178;11.566;2023-12-29T08:27:48;95839.78;;;7.35;42.27
73671;BME280;61968;48.178;11.566;2023-12-29T08:30:15;95839.53;;;7.50;41.75
73671;BME280;61968;48.178;11.566;2023-12-29T08:32:42;95846.22;;;7.59;41.57
73671;BME280;61968;48.178;11.566;2023-12-29T08:35:08;95848.88;;;7.53;41.81
73671;BME280;61968;48.178;11.566;2023-12-29T08:37:35;95853.03;;;7.74;41.58
73671;BME280;61968;48.178;11.566;2023-12-29T08:40:03;95849.34;;;7.81;41.14
73671;BME280;61968;48.178;11.566;2023-12-29T08:42:31;95857.47;;;7.73;41.34
73671;BME280;61968;48.178;11.566;2023-12-29T08:44:59;95850.34;;;7.87;41.15
73671;BME280;61968;48.178;11.566;2023-12-29T08:47:25;95843.47;;;7.79;41.54
73671;BME280;61968;48.178;11.566;2023-12-29T08:49:52;95850.72;;;7.91;41.29
73671;BME280;61968;48.178;11.566;2023-12-29T08:52:19;95849.31;;;7.88;41.36
73671;BME280;61968;48.178;11.566;2023-12-29T08:54:46;95840.56;;;7.94;41.10
73671;BME280;61968;48.178;11.566;2023-12-29T08:57:14;95836.81;;;8.15;40.64
73671;BME280;61968;48.178;11.566;2023-12-29T08:59:40;95839.25;;;8.17;40.99
73671;BME280;61968;48.178;11.566;2023-12-29T09:02:07;95842.34;;;8.07;40.95
73671;BME280;61968;48.178;11.566;2023-12-29T09:04:33;95842.72;;;7.72;41.66
73671;BME280;61968;48.178;11.566;2023-12-29T09:07:00;95848.72;;;7.86;41.30
73671;BME280;61968;48.178;11.566;2023-12-29T09:09:27;95853.63;;;7.76;41.34
73671;BME280;61968;48.178;11.566;2023-12-29T09:11:53;95855.31;;;7.57;41.67
73671;BME280;61968;48.178;11.566;2023-12-29T09:14:21;95850.38;;;7.80;41.44
73671;BME280;61968;48.178;11.566;2023-12-29T09:16:47;95861.06;;;7.92;41.09
73671;BME280;61968;48.178;11.566;2023-12-29T09:19:14;95868.63;;;7.69;41.93
73671;BME280;61968;48.178;11.566;2023-12-29T09:21:40;95868.38;;;7.83;41.32
73671;BME280;61968;48.178;11.566;2023-12-29T09:24:07;95866.28;;;7.99;41.28
73671;BME280;61968;48.178;11.566;2023-12-29T09:26:33;95863.09;;;8.22;40.78
73671;BME280;61968;48.178;11.566;2023-12-29T09:29:00;95862.84;;;8.30;40.82
73671;BME280;61968;48.178;11.566;2023-12-29T09:31:28;95865.72;;;7.90;41.67
73671;BME280;61968;48.178;11.566;2023-12-29T09:33:55;95858.56;;;8.04;41.45
73671;BME280;61968;48.178;11.566;2023-12-29T09:36:21;95856.38;;;7.94;41.26
73671;BME280;61968;48.178;11.566;2023-12-29T09:38:48;95855.94;;;7.97;41.56
73671;BME280;61968;48.178;11.566;2023-12-29T09:41:15;95857.59;;;7.98;41.46
73671;BME280;61968;48.178;11.566;2023-12-29T09:43:41;95852.56;;;8.22;41.17
73671;BME280;61968;48.178;11.566;2023-12-29T09:46:10;95850.34;;;8.19;41.08
73671;BME280;61968;48.178;11.566;2023-12-29T09:48:41;95854.91;;;8.05;41.61
73671;BME280;61968;48.178;11.566;2023-12-29T09:51:10;95842.34;;;8.07;41.30
73671;BME280;61968;48.178;11.566;2023-12-29T09:53:37;95847.06;;;7.98;41.54
73671;BME280;61968;48.178;11.566;2023-12-29T09:56:07;95843.94;;;8.08;41.41
73671;BME280;61968;48.178;11.566;2023-12-29T09:58:34;95849.44;;;7.55;42.73
73671;BME280;61968;48.178;11.566;2023-12-29T10:01:03;95848.13;;;7.84;42.17
73671;BME280;61968;48.178;11.566;2023-12-29T10:03:30;95827.81;;;7.98;42.27
73671;BME280;61968;48.178;11.566;2023-12-29T10:06:00;95832.19;;;8.10;41.78
73671;BME280;61968;48.178;11.566;2023-12-29T10:08:27;95831.16;;;8.11;42.02
73671;BME280;61968;48.178;11.566;2023-12-29T10:10:55;95832.78;;;8.12;42.27
73671;BME280;61968;48.178;11.566;2023-12-29T10:13:24;95830.31;;;8.18;42.17
73671;BME280;61968;48.178;11.566;2023-12-29T10:15:57;95824.88;;;8.12;42.48
73671;BME280;61968;48.178;11.566;2023-12-29T10:18:32;95817.91;;;7.93;42.88
73671;BME280;61968;48.178;11.566;2023-12-29T10:21:11;95815.66;;;7.97;42.87
73671;BME280;61968;48.178;11.566;2023-12-29T10:23:42;95800.41;;;7.74;43.62
73671;BME280;61968;48.178;11.566;2023-12-29T10:26:10;95792.94;;;8.02;43.30
73671;BME280;61968;48.178;11.566;2023-12-29T10:28:37;95805.69;;;8.05;43.09
73671;BME280;61968;48.178;11.566;2023-12-29T10:31:04;95785.28;;;7.94;43.54
73671;BME280;61968;48.178;11.566;2023-12-29T10:33:31;95786.59;;;7.78;44.20
73671;BME280;61968;48.178;11.566;2023-12-29T10:35:59;95784.69;;;7.54;44.78
73671;BME280;61968;48.178;11.566;2023-12-29T10:38:30;95777.25;;;7.82;44.58
73671;BME280;61968;48.178;11.566;2023-12-29T10:41:10;95772.84;;;8.08;43.59
73671;BME280;61968;48.178;11.566;2023-12-29T10:43:36;95778.75;;;8.03;43.92
73671;BME280;61968;48.178;11.566;2023-12-29T10:46:06;95780.81;;;8.01;43.83
73671;BME280;61968;48.178;11.566;2023-12-29T10:48:33;95783.25;;;7.96;44.26
73671;BME280;61968;48.178;11.566;2023-12-29T10:51:00;95783.06;;;7.91;44.59
73671;BME280;61968;48.178;11.566;2023-12-29T10:53:31;95775.91;;;8.05;44.53
73671;BME280;61968;48.178;11.566;2023-12-29T10:55:57;95769.53;;;7.87;44.38
73671;BME280;61968;48.178;11.566;2023-12-29T10:58:24;95765.69;;;8.15;43.66
73671;BME280;61968;48.178;11.566;2023-12-29T11:00:52;95768.00;;;8.05;44.33
73671;BME280;61968;48.178;11.566;2023-12-29T11:03:19;95765.50;;;7.85;44.52
73671;BME280;61968;48.178;11.566;2023-12-29T11:05:45;95766.81;;;7.69;45.07
73671;BME280;61968;48.178;11.566;2023-12-29T11:08:15;95764.88;;;7.51;45.25
73671;BME280;61968;48.178;11.566;2023-12-29T11:10:44;95754.34;;;7.89;44.46
73671;BME280;61968;48.178;11.566;2023-12-29T11:13:11;95760.06;;;8.11;44.16
73671;BME280;61968;48.178;11.566;2023-12-29T11:15:42;95758.84;;;8.39;43.58
73671;BME280;61968;48.178;11.566;2023-12-29T11:18:11;95758.50;;;8.29;43.85
73671;BME280;61968;48.178;11.566;2023-12-29T11:20:39;95764.56;;;7.73;45.15
73671;BME280;61968;48.178;11.566;2023-12-29T11:23:06;95752.38;;;8.10;44.33
73671;BME280;61968;48.178;11.566;2023-12-29T11:25:33;95748.66;;;7.93;44.71
73671;BME280;61968;48.178;11.566;2023-12-29T11:28:02;95751.84;;;8.01;44.54
73671;BME280;61968;48.178;11.566;2023-12-29T11:30:29;95750.13;;;8.14;44.06
73671;BME280;61968;48.178;11.566;2023-12-29T11:32:59;95745.84;;;8.19;44.10
73671;BME280;61968;48.178;11.566;2023-12-29T11:35:31;95749.22;;;8.26;43.91
73671;BME280;61968;48.178;11.566;2023-12-29T11:38:20;95756.38;;;8.44;42.98
73671;BME280;61968;48.178;11.566;2023-12-29T11:40:56;95742.28;;;8.07;43.93
73671;BME280;61968;48.178;11.566;2023-12-29T11:43:26;95748.66;;;8.18;43.93
73671;BME280;61968;48.178;11.566;2023-12-29T11:45:53;95734.56;;;7.80;44.55
73671;BME280;61968;48.178;11.566;2023-12-29T11:51:34;95730.06;;;8.12;44.18
73671;BME280;61968;48.178;11.566;2023-12-29T11:54:01;95735.91;;;8.40;43.36
73671;BME280;61968;48.178;11.566;2023-12-29T11:56:33;95725.59;;;8.38;43.63
73671;BME280;61968;48.178;11.566;2023-12-29T11:59:13;95729.69;;;8.59;43.17
73671;BME280;61968;48.178;11.566;2023-12-29T12:01:40;95728.06;;;8.83;42.49
73671;BME280;61968;48.178;11.566;2023-12-29T12:04:35;95734.38;;;8.32;43.50
73671;BME280;61968;48.178;11.566;2023-12-29T12:07:03;95729.22;;;8.44;43.43
73671;BME280;61968;48.178;11.566;2023-12-29T12:09:30;95722.31;;;8.43;43.20
73671;BME280;61968;48.178;11.566;2023-12-29T12:11:58;95719.31;;;8.39;43.70
73671;BME280;61968;48.178;11.566;2023-12-29T12:14:45;95715.59;;;8.90;42.44
73671;BME280;61968;48.178;11.566;2023-12-29T12:17:12;95723.75;;;8.89;42.18
73671;BME280;61968;48.178;11.566;2023-12-29T12:19:53;95723.66;;;8.95;41.86
73671;BME280;61968;48.178;11.566;2023-12-29T12:22:24;95719.78;;;9.16;41.38
73671;BME280;61968;48.178;11.566;2023-12-29T12:24:55;95713.91;;;9.14;41.64
73671;BME280;61968;48.178;11.566;2023-12-29T12:27:22;95703.00;;;9.11;41.76
73671;BME280;61968;48.178;11.566;2023-12-29T12:29:53;95698.69;;;8.98;41.95
73671;BME280;61968;48.178;11.566;2023-12-29T12:32:22;95704.75;;;8.80;42.14
73671;BME280;61968;48.178;11.566;2023-12-29T12:34:48;95711.28;;;8.77;42.15
73671;BME280;61968;48.178;11.566;2023-12-29T12:37:18;95706.91;;;8.65;42.20
73671;BME280;61968;48.178;11.566;2023-12-29T12:39:45;95701.25;;;8.68;42.38
73671;BME280;61968;48.178;11.566;2023-12-29T12:42:12;95705.13;;;8.84;42.13
73671;BME280;61968;48.178;11.566;2023-12-29T12:44:41;95711.13;;;8.47;42.28
73671;BME280;61968;48.178;11.566;2023-12-29T12:47:15;95714.91;;;8.33;42.91
73671;BME280;61968;48.178;11.566;2023-12-29T12:49:43;95717.13;;;8.54;42.45
73671;BME280;61968;48.178;11.566;2023-12-29T12:52:10;95712.69;;;8.30;42.94
73671;BME280;61968;48.178;11.566;2023-12-29T12:54:37;95717.81;;;8.50;42.28
73671;BME280;61968;48.178;11.566;2023-12-29T12:57:04;95714.13;;;8.51;42.05
73671;BME280;61968;48.178;11.566;2023-12-29T12:59:32;95708.03;;;8.32;42.59
73671;BME280;61968;48.178;11.566;2023-12-29T13:01:59;95710.00;;;8.37;42.55
73671;BME280;61968;48.178;11.566;2023-12-29T13:04:27;95712.94;;;8.72;41.56
73671;BME280;61968;48.178;11.566;2023-12-29T13:06:53;95719.19;;;8.77;41.36